Time;durP1;ratioP1;P1;durP2;ratioP2;P2;SDS_P1;SDS_P2;PMS_P1;PMS_P2;Temp;Humidity;BMP_temperature;BMP_pressure;BME280_temperature;BME280_humidity;BME280_pressure;Samples;Min_cycle;Max_cycle;Signal;HPM_P1;HPM_P2
2023/08/24 00:01:09;;;;;;;0.20;0.20;;;17.80;99.90;;;;;;5095861;28;20133;-76
2023/08/24 00:03:34;;;;;;;0.30;0.30;;;17.80;99.90;;;;;;5095268;28;20071;-75
2023/08/24 00:06:00;;;;;;;0.30;0.30;;;17.80;99.90;;;;;;5095778;28;20129;-75
2023/08/24 00:08:26;;;;;;;0.30;0.30;;;17.80;99.90;;;;;;5095873;28;20040;-76
2023/08/24 00:10:52;;;;;;;0.20;0.20;;;17.60;99.90;;;;;;5095258;28;20289;-74
2023/08/24 00:13:18;;;;;;;0.20;0.20;;;17.60;99.90;;;;;;5095826;28;20044;-76
2023/08/24 00:15:45;;;;;;;0.30;0.30;;;17.60;99.90;;;;;;5095889;28;20086;-75
2023/08/24 00:18:11;;;;;;;0.20;0.20;;;17.60;99.90;;;;;;5095603;28;20028;-77
2023/08/24 00:20:37;;;;;;;0.40;0.40;;;17.50;99.90;;;;;;5095599;28;20046;-79
2023/08/24 00:23:03;;;;;;;0.30;0.30;;;17.50;99.90;;;;;;5095579;28;20048;-75
2023/08/24 00:25:30;;;;;;;0.20;0.20;;;17.40;99.90;;;;;;5095147;28;20694;-75
2023/08/24 00:27:56;;;;;;;0.20;0.20;;;17.40;99.90;;;;;;5095395;28;20050;-74
2023/08/24 00:30:23;;;;;;;0.30;0.30;;;17.40;99.90;;;;;;5095324;28;20048;-74
2023/08/24 00:32:48;;;;;;;;;;;17.30;99.90;;;;;;5095553;28;20036;-75
2023/08/24 00:35:14;;;;;;;0.30;0.30;;;17.30;99.90;;;;;;5095040;28;19916;-74
2023/08/24 00:37:40;;;;;;;0.40;0.40;;;17.30;99.90;;;;;;5095167;28;20050;-74
2023/08/24 00:40:10;;;;;;;0.30;0.30;;;17.20;99.90;;;;;;5094863;28;20468;-74
2023/08/24 00:42:40;;;;;;;0.20;0.20;;;17.20;99.90;;;;;;5095109;28;20046;-74
2023/08/24 00:45:07;;;;;;;0.30;0.30;;;17.10;99.90;;;;;;5095139;28;20063;-75
2023/08/24 00:47:33;;;;;;;0.30;0.30;;;17.10;99.90;;;;;;5094643;28;20039;-74
2023/08/24 00:50:03;;;;;;;0.30;0.30;;;17.00;99.90;;;;;;5095084;28;20040;-75
2023/08/24 00:52:31;;;;;;;0.55;0.30;;;16.90;99.90;;;;;;5094599;28;20043;-75
2023/08/24 00:55:01;;;;;;;0.50;0.40;;;16.90;99.90;;;;;;5094948;28;20126;-74
2023/08/24 00:57:28;;;;;;;0.30;0.30;;;16.90;99.90;;;;;;5094673;28;20128;-74
2023/08/24 00:59:58;;;;;;;0.20;0.20;;;16.80;99.90;;;;;;5094725;28;20047;-74
2023/08/24 01:02:24;;;;;;;0.30;0.30;;;16.90;99.90;;;;;;5094728;28;20123;-75
2023/08/24 01:04:50;;;;;;;0.30;0.30;;;16.80;99.90;;;;;;5094597;28;20094;-75
2023/08/24 01:07:17;;;;;;;0.40;0.40;;;16.80;99.90;;;;;;5094850;28;20044;-74
2023/08/24 01:09:42;;;;;;;;;;;16.80;99.90;;;;;;5095425;28;20138;-75
2023/08/24 01:12:19;;;;;;;0.22;0.22;;;16.80;99.90;;;;;;5094592;28;19947;-74
2023/08/24 01:14:53;;;;;;;0.30;0.30;;;16.70;99.90;;;;;;5094858;28;20177;-75
2023/08/24 01:17:23;;;;;;;0.30;0.30;;;16.70;99.90;;;;;;5094686;28;20040;-74
2023/08/24 01:19:50;;;;;;;0.40;0.40;;;16.70;99.90;;;;;;5094069;28;20093;-74
2023/08/24 01:22:28;;;;;;;0.20;0.20;;;16.70;99.90;;;;;;5093889;28;20043;-75
2023/08/24 01:25:03;;;;;;;0.30;0.30;;;16.60;99.90;;;;;;5094305;28;20091;-75
2023/08/24 01:27:31;;;;;;;0.30;0.30;;;16.70;99.90;;;;;;5094334;28;20054;-75
2023/08/24 01:29:57;;;;;;;0.30;0.30;;;16.60;99.90;;;;;;5094373;28;20426;-75
2023/08/24 01:32:22;;;;;;;0.50;0.50;;;16.60;99.90;;;;;;5094302;28;20036;-74
2023/08/24 01:34:48;;;;;;;0.40;0.40;;;16.60;99.90;;;;;;5094088;28;20123;-74
2023/08/24 01:37:14;;;;;;;0.30;0.30;;;16.60;99.90;;;;;;5094116;28;20185;-74
2023/08/24 01:39:46;;;;;;;0.30;0.30;;;16.50;99.90;;;;;;5094051;28;20083;-74
2023/08/24 01:42:20;;;;;;;0.30;0.30;;;16.60;99.90;;;;;;5075761;28;20044;-74
2023/08/24 01:44:52;;;;;;;0.38;0.35;;;16.60;99.90;;;;;;5093899;28;20169;-74
2023/08/24 01:47:18;;;;;;;0.30;0.30;;;16.60;99.90;;;;;;5094217;28;20469;-77
2023/08/24 01:49:44;;;;;;;0.30;0.30;;;16.60;99.90;;;;;;5094205;28;20044;-74
2023/08/24 01:52:11;;;;;;;0.90;0.30;;;16.70;99.90;;;;;;5093850;28;20513;-75
2023/08/24 01:54:36;;;;;;;0.20;0.20;;;16.70;99.90;;;;;;5093814;28;20036;-75
2023/08/24 01:57:05;;;;;;;0.30;0.30;;;16.70;99.90;;;;;;5093804;28;20046;-75
2023/08/24 01:59:30;;;;;;;0.30;0.30;;;16.70;99.90;;;;;;5093795;28;20040;-76
2023/08/24 02:01:56;;;;;;;0.50;0.47;;;16.70;99.90;;;;;;5093799;28;20118;-75
2023/08/24 02:04:22;;;;;;;0.30;0.30;;;16.80;99.90;;;;;;5093788;28;20044;-75
2023/08/24 02:06:47;;;;;;;0.30;0.30;;;16.80;99.90;;;;;;5093732;28;20484;-76
2023/08/24 02:09:13;;;;;;;0.40;0.40;;;16.90;99.90;;;;;;5093745;28;20048;-75
2023/08/24 02:11:38;;;;;;;0.37;0.37;;;16.90;99.90;;;;;;5093816;28;20082;-75
2023/08/24 02:14:04;;;;;;;0.30;0.30;;;16.90;99.90;;;;;;5093524;28;20154;-76
2023/08/24 02:16:30;;;;;;;0.30;0.30;;;17.00;99.90;;;;;;5093639;28;20071;-75
2023/08/24 02:18:56;;;;;;;0.40;0.40;;;17.00;99.90;;;;;;5093547;28;20491;-76
2023/08/24 02:21:21;;;;;;;0.30;0.30;;;17.00;99.90;;;;;;5093935;28;20482;-76
2023/08/24 02:23:47;;;;;;;0.40;0.40;;;17.10;99.90;;;;;;5093593;28;20499;-76
2023/08/24 02:26:12;;;;;;;0.30;0.30;;;17.10;99.90;;;;;;5093395;28;20142;-76
2023/08/24 02:28:38;;;;;;;0.40;0.40;;;17.10;99.90;;;;;;5093437;28;20036;-75
2023/08/24 02:31:04;;;;;;;0.30;0.30;;;17.20;99.90;;;;;;5093521;28;20051;-76
2023/08/24 02:33:31;;;;;;;0.30;0.30;;;17.20;99.90;;;;;;5093051;28;20476;-76
2023/08/24 02:35:57;;;;;;;0.40;0.40;;;17.20;99.90;;;;;;5097151;28;20421;-76
2023/08/24 02:38:23;;;;;;;0.30;0.30;;;17.30;99.90;;;;;;5097590;28;20125;-77
2023/08/24 02:40:49;;;;;;;;;;;17.30;99.90;;;;;;5097702;28;20043;-78
2023/08/24 02:43:15;;;;;;;0.20;0.20;;;17.30;99.90;;;;;;5097439;28;19916;-77
2023/08/24 02:45:40;;;;;;;0.30;0.30;;;17.30;99.90;;;;;;5079278;28;20066;-76
2023/08/24 02:48:06;;;;;;;0.30;0.30;;;17.30;99.90;;;;;;5097419;28;20046;-77
2023/08/24 02:50:31;;;;;;;0.30;0.30;;;17.30;99.90;;;;;;5097243;28;20050;-76
2023/08/24 02:53:01;;;;;;;0.30;0.30;;;17.30;99.90;;;;;;5097201;28;20085;-77
2023/08/24 02:55:31;;;;;;;0.30;0.30;;;17.30;99.90;;;;;;5097006;28;20055;-77
2023/08/24 02:57:57;;;;;;;0.30;0.30;;;17.30;99.90;;;;;;5097105;28;20072;-75
2023/08/24 03:00:23;;;;;;;0.30;0.30;;;17.30;99.90;;;;;;5097377;28;20087;-75
2023/08/24 03:02:48;;;;;;;0.40;0.40;;;17.20;99.90;;;;;;5079714;28;20091;-77
2023/08/24 03:05:14;;;;;;;1.50;0.67;;;17.30;99.90;;;;;;5097124;28;20042;-77
2023/08/24 03:07:39;;;;;;;0.30;0.30;;;17.30;99.90;;;;;;5097385;28;20066;-76
2023/08/24 03:10:05;;;;;;;0.30;0.30;;;17.20;99.90;;;;;;5096924;28;20080;-77
2023/08/24 03:12:31;;;;;;;0.30;0.30;;;17.20;99.90;;;;;;5096407;28;20119;-77
2023/08/24 03:14:57;;;;;;;0.40;0.40;;;17.30;99.90;;;;;;5097403;28;20652;-77
2023/08/24 03:17:23;;;;;;;0.30;0.30;;;17.20;99.90;;;;;;5096539;28;20092;-76
2023/08/24 03:19:48;;;;;;;0.30;0.30;;;17.20;99.90;;;;;;5096787;28;20498;-77
2023/08/24 03:22:14;;;;;;;0.30;0.30;;;17.20;99.90;;;;;;5096712;28;20282;-76
2023/08/24 03:24:39;;;;;;;0.47;0.43;;;17.20;99.90;;;;;;5096660;28;20051;-76
2023/08/24 03:27:05;;;;;;;0.50;0.30;;;17.20;99.90;;;;;;5096318;28;20031;-76
2023/08/24 03:29:31;;;;;;;0.40;0.40;;;17.20;99.90;;;;;;5096308;28;20040;-76
2023/08/24 03:31:56;;;;;;;0.30;0.30;;;17.10;99.90;;;;;;5096559;28;20098;-76
2023/08/24 03:34:23;;;;;;;0.40;0.40;;;17.10;99.90;;;;;;5096557;28;20043;-76
2023/08/24 03:36:48;;;;;;;0.20;0.20;;;17.00;99.90;;;;;;5096667;28;20044;-78
2023/08/24 03:39:17;;;;;;;0.27;0.27;;;17.00;99.90;;;;;;5096642;28;20388;-76
2023/08/24 03:41:42;;;;;;;0.30;0.30;;;17.00;99.90;;;;;;5096335;28;20036;-75
2023/08/24 03:44:08;;;;;;;0.30;0.30;;;17.00;99.90;;;;;;5096791;28;20062;-76
2023/08/24 03:46:34;;;;;;;0.30;0.30;;;17.00;99.90;;;;;;5095784;28;20039;-75
2023/08/24 03:48:59;;;;;;;0.30;0.30;;;17.00;99.90;;;;;;5096265;28;20100;-78
2023/08/24 03:51:25;;;;;;;0.30;0.30;;;16.90;99.90;;;;;;5096229;28;20040;-75
2023/08/24 03:53:50;;;;;;;0.20;0.20;;;16.90;99.90;;;;;;5096102;28;20062;-77
2023/08/24 03:56:16;;;;;;;1.10;0.40;;;16.80;99.90;;;;;;5096139;28;20067;-78
2023/08/24 03:58:42;;;;;;;0.30;0.30;;;16.90;99.90;;;;;;5096080;28;20097;-76
2023/08/24 04:01:11;;;;;;;0.47;0.40;;;16.80;99.90;;;;;;5095880;28;20062;-77
2023/08/24 04:03:37;;;;;;;0.30;0.30;;;16.80;99.90;;;;;;5095943;28;20086;-78
2023/08/24 04:06:02;;;;;;;0.30;0.30;;;16.80;99.90;;;;;;5095852;28;20036;-76
2023/08/24 04:08:28;;;;;;;0.40;0.40;;;16.80;99.90;;;;;;5077834;28;20097;-78
2023/08/24 04:10:53;;;;;;;0.37;0.37;;;16.70;99.90;;;;;;5095793;28;20407;-78
2023/08/24 04:13:19;;;;;;;0.30;0.30;;;16.70;99.90;;;;;;5095327;28;20095;-78
2023/08/24 04:15:45;;;;;;;0.30;0.30;;;16.60;99.90;;;;;;5095736;28;20043;-76
2023/08/24 04:18:11;;;;;;;0.30;0.30;;;16.60;99.90;;;;;;5096077;28;20098;-75
2023/08/24 04:20:36;;;;;;;0.30;0.30;;;16.60;99.90;;;;;;5095441;28;20066;-76
2023/08/24 04:23:02;;;;;;;0.30;0.30;;;16.50;99.90;;;;;;5095729;28;20464;-78
2023/08/24 04:25:29;;;;;;;0.30;0.30;;;16.40;99.90;;;;;;5095519;28;20035;-77
2023/08/24 04:27:55;;;;;;;0.30;0.30;;;16.50;99.90;;;;;;5095075;28;20040;-76
2023/08/24 04:30:21;;;;;;;0.47;0.47;;;16.40;99.90;;;;;;5095346;28;20452;-78
2023/08/24 04:32:47;;;;;;;0.60;0.60;;;16.40;99.90;;;;;;5095237;28;20089;-76
2023/08/24 04:35:13;;;;;;;1.70;0.40;;;16.30;99.90;;;;;;5095098;28;20039;-76
2023/08/24 04:37:38;;;;;;;0.30;0.30;;;16.30;99.90;;;;;;5095429;28;20734;-77
2023/08/24 04:40:07;;;;;;;0.50;0.50;;;16.30;99.90;;;;;;5095199;28;20105;-75
2023/08/24 04:42:33;;;;;;;0.30;0.30;;;16.30;99.90;;;;;;5095094;28;20384;-74
2023/08/24 04:44:58;;;;;;;0.30;0.30;;;16.30;99.90;;;;;;5095080;28;20043;-72
2023/08/24 04:47:24;;;;;;;0.30;0.30;;;16.30;99.90;;;;;;5095068;28;20313;-73
2023/08/24 04:49:49;;;;;;;0.47;0.47;;;16.20;99.90;;;;;;5095107;28;20040;-72
2023/08/24 04:52:15;;;;;;;0.40;0.40;;;16.20;99.90;;;;;;5094961;28;20066;-73
2023/08/24 04:54:41;;;;;;;0.30;0.30;;;16.20;99.90;;;;;;5094835;28;20089;-74
2023/08/24 04:57:06;;;;;;;0.30;0.30;;;16.20;99.90;;;;;;5093765;28;20380;-73
2023/08/24 04:59:32;;;;;;;0.30;0.30;;;16.10;99.90;;;;;;5094863;28;20372;-74
2023/08/24 05:01:58;;;;;;;0.50;0.50;;;16.20;99.90;;;;;;5094847;28;20046;-76
2023/08/24 05:04:24;;;;;;;0.40;0.40;;;16.20;99.90;;;;;;5094803;28;20481;-74
2023/08/24 05:06:50;;;;;;;0.30;0.30;;;16.20;99.90;;;;;;5094785;28;20140;-73
2023/08/24 05:09:15;;;;;;;0.30;0.30;;;16.20;99.90;;;;;;5094844;28;20476;-73
2023/08/24 05:11:41;;;;;;;0.30;0.30;;;16.20;99.90;;;;;;5094462;28;20119;-73
2023/08/24 05:14:07;;;;;;;1.07;0.73;;;16.20;99.90;;;;;;5094728;28;20146;-72
2023/08/24 05:16:32;;;;;;;0.30;0.30;;;16.20;99.90;;;;;;5094454;28;20468;-75
2023/08/24 05:18:58;;;;;;;0.37;0.37;;;16.30;99.90;;;;;;5094411;28;20038;-74
2023/08/24 05:21:24;;;;;;;0.30;0.30;;;16.30;99.90;;;;;;5094215;28;20040;-73
2023/08/24 05:23:49;;;;;;;0.30;0.30;;;16.30;99.90;;;;;;5094152;28;20397;-74
2023/08/24 05:26:22;;;;;;;0.30;0.30;;;16.30;99.90;;;;;;5094371;28;20047;-74
2023/08/24 05:28:48;;;;;;;0.30;0.30;;;16.30;99.90;;;;;;5094039;28;20044;-74
2023/08/24 05:31:13;;;;;;;0.40;0.40;;;16.30;99.90;;;;;;5094232;28;20032;-74
2023/08/24 05:33:39;;;;;;;0.30;0.30;;;16.40;99.90;;;;;;5093945;28;20460;-73
2023/08/24 05:36:05;;;;;;;0.50;0.43;;;16.40;99.90;;;;;;5093833;28;20032;-74
2023/08/24 05:38:30;;;;;;;0.43;0.43;;;16.40;99.90;;;;;;5094308;28;20066;-75
2023/08/24 05:40:56;;;;;;;0.73;0.73;;;16.50;99.90;;;;;;5094075;28;20048;-75
2023/08/24 05:43:21;;;;;;;0.30;0.30;;;16.60;99.90;;;;;;5076016;28;20382;-75
2023/08/24 05:45:48;;;;;;;0.53;0.53;;;16.50;99.90;;;;;;5094183;28;20040;-74
2023/08/24 05:48:14;;;;;;;0.30;0.30;;;16.60;99.90;;;;;;5094030;28;20487;-75
2023/08/24 05:50:44;;;;;;;0.30;0.30;;;16.60;99.90;;;;;;5076302;28;20131;-75
2023/08/24 05:53:10;;;;;;;0.30;0.30;;;16.70;99.90;;;;;;5093898;28;20044;-78
2023/08/24 05:55:39;;;;;;;0.30;0.30;;;16.80;99.90;;;;;;5076018;28;20036;-77
2023/08/24 05:58:05;;;;;;;0.50;0.50;;;16.80;99.90;;;;;;5093859;28;20055;-75
2023/08/24 06:00:31;;;;;;;0.30;0.30;;;16.80;99.90;;;;;;5075780;28;20043;-76
2023/08/24 06:02:56;;;;;;;0.30;0.30;;;16.90;99.90;;;;;;5093449;28;20035;-76
2023/08/24 06:05:22;;;;;;;0.40;0.40;;;16.90;99.90;;;;;;5093744;28;20039;-76
2023/08/24 06:07:48;;;;;;;0.47;0.47;;;16.90;99.90;;;;;;5093692;28;20089;-78
2023/08/24 06:10:14;;;;;;;0.40;0.40;;;17.00;99.90;;;;;;5093435;28;20036;-75
2023/08/24 06:12:40;;;;;;;0.40;0.40;;;17.00;99.90;;;;;;5093891;28;20109;-74
2023/08/24 06:15:09;;;;;;;0.53;0.50;;;17.00;99.90;;;;;;5093766;28;20048;-75
2023/08/24 06:17:35;;;;;;;0.40;0.40;;;17.00;99.90;;;;;;5093532;28;20047;-76
2023/08/24 06:20:03;;;;;;;0.30;0.30;;;17.10;99.90;;;;;;5093985;28;20096;-77
2023/08/24 06:22:29;;;;;;;0.30;0.30;;;17.20;99.90;;;;;;5093561;28;20032;-75
2023/08/24 06:24:59;;;;;;;0.40;0.40;;;17.20;99.90;;;;;;5093515;28;20046;-75
2023/08/24 06:27:25;;;;;;;0.50;0.50;;;17.30;99.90;;;;;;5094043;28;20044;-77
2023/08/24 06:29:51;;;;;;;0.40;0.33;;;17.50;99.90;;;;;;5093500;28;20043;-74
2023/08/24 06:32:16;;;;;;;0.93;0.70;;;17.60;99.90;;;;;;5093387;28;20044;-74
2023/08/24 06:34:42;;;;;;;0.57;0.43;;;17.70;99.90;;;;;;5093493;28;20048;-75
2023/08/24 06:37:07;;;;;;;0.63;0.63;;;17.80;99.90;;;;;;5093090;28;20168;-74
2023/08/24 06:39:33;;;;;;;0.70;0.63;;;18.00;99.90;;;;;;5093589;28;20044;-73
2023/08/24 06:41:59;;;;;;;0.50;0.50;;;18.10;99.90;;;;;;5093591;28;20037;-74
2023/08/24 06:44:25;;;;;;;0.50;0.50;;;18.20;99.90;;;;;;5093272;28;20105;-74
2023/08/24 06:46:50;;;;;;;0.40;0.40;;;18.40;99.90;;;;;;5093743;28;20072;-74
2023/08/24 06:49:16;;;;;;;0.80;0.53;;;18.50;99.90;;;;;;5093280;28;20456;-74
2023/08/24 06:51:42;;;;;;;0.50;0.50;;;18.70;99.90;;;;;;5093369;28;20039;-75
2023/08/24 14:55:55;;;;;;;0.30;0.30;;;25.30;99.90;;;;;;5152021;27;20368;-75
2023/08/24 14:58:21;;;;;;;0.35;0.35;;;25.10;99.90;;;;;;5131565;28;20044;-76
2023/08/24 15:00:47;;;;;;;;;;;25.10;99.90;;;;;;5131834;28;20031;-77
2023/08/24 15:03:13;;;;;;;0.60;0.60;;;25.10;99.90;;;;;;5131442;28;19931;-76
2023/08/24 15:06:04;;;;;;;0.40;0.40;;;25.00;99.90;;;;;;5131287;28;20476;-76
2023/08/24 15:08:31;;;;;;;0.30;0.30;;;25.00;99.90;;;;;;5131614;28;20036;-76
2023/08/24 15:10:57;;;;;;;;;;;25.00;99.90;;;;;;5113386;28;20413;-76
2023/08/24 15:13:27;;;;;;;0.30;0.30;;;24.90;99.90;;;;;;5131588;28;19963;-76
2023/08/24 15:15:54;;;;;;;0.30;0.30;;;24.90;99.90;;;;;;5130901;28;20047;-76
2023/08/24 15:18:20;;;;;;;0.20;0.20;;;24.90;99.90;;;;;;5112804;28;20043;-76
2023/08/24 15:20:46;;;;;;;0.20;0.20;;;24.90;99.90;;;;;;5131120;28;20067;-77
2023/08/24 15:23:29;;;;;;;0.20;0.20;;;24.80;99.90;;;;;;5131012;28;20462;-76
2023/08/24 15:25:57;;;;;;;0.30;0.30;;;24.80;99.90;;;;;;5130900;28;20047;-76
2023/08/24 15:28:25;;;;;;;0.20;0.20;;;24.80;99.90;;;;;;5130912;28;20051;-76
2023/08/24 15:30:51;;;;;;;0.22;0.22;;;24.80;99.90;;;;;;5131054;28;20031;-76
2023/08/24 15:33:18;;;;;;;0.20;0.20;;;24.80;99.90;;;;;;5130923;28;20047;-76
2023/08/24 15:35:44;;;;;;;0.30;0.30;;;24.90;99.90;;;;;;5112578;28;20047;-76
2023/08/24 15:38:11;;;;;;;0.38;0.38;;;24.90;99.90;;;;;;5130690;28;20043;-76
2023/08/24 15:40:37;;;;;;;;;;;25.00;99.90;;;;;;5130956;28;20126;-77
2023/08/24 15:43:04;;;;;;;0.30;0.30;;;25.00;99.90;;;;;;5130714;28;19927;-76
2023/08/24 15:45:30;;;;;;;0.40;0.40;;;25.10;99.90;;;;;;5130636;28;20074;-76
2023/08/24 15:47:56;;;;;;;0.20;0.20;;;25.10;99.90;;;;;;5130845;28;20122;-75
2023/08/24 15:50:22;;;;;;;0.30;0.30;;;25.10;99.90;;;;;;5130369;28;20043;-75
2023/08/24 15:52:48;;;;;;;0.20;0.20;;;25.10;99.90;;;;;;5130564;28;20120;-75
2023/08/24 15:55:14;;;;;;;0.50;0.50;;;25.20;99.90;;;;;;5129791;28;20055;-75
2023/08/24 15:57:40;;;;;;;0.30;0.30;;;25.10;99.90;;;;;;5130286;28;20047;-75
2023/08/24 16:00:10;;;;;;;0.32;0.30;;;25.10;99.90;;;;;;5130393;28;20510;-75
2023/08/24 16:02:38;;;;;;;0.20;0.20;;;25.20;99.90;;;;;;5111907;28;20074;-76
2023/08/24 16:05:05;;;;;;;0.30;0.30;;;25.10;99.90;;;;;;5094027;28;20392;-75
2023/08/24 16:07:31;;;;;;;;;;;25.10;99.90;;;;;;5116520;28;20126;-75
2023/08/24 16:09:59;;;;;;;0.30;0.30;;;25.10;99.90;;;;;;5116309;28;20034;-78
2023/08/24 16:12:28;;;;;;;0.50;0.50;;;25.00;99.90;;;;;;5116103;28;20118;-77
2023/08/24 16:14:54;;;;;;;0.20;0.20;;;25.00;99.90;;;;;;5116394;28;20118;-76
2023/08/24 16:17:20;;;;;;;0.30;0.30;;;25.00;99.90;;;;;;5116332;28;20086;-75
2023/08/24 16:19:45;;;;;;;0.20;0.20;;;24.90;99.90;;;;;;5116824;28;20126;-76
2023/08/24 16:22:11;;;;;;;0.30;0.30;;;24.90;99.90;;;;;;5116068;28;20039;-73
2023/08/24 16:24:37;;;;;;;0.37;0.37;;;24.90;99.90;;;;;;5115480;28;20032;-73
2023/08/24 16:27:02;;;;;;;0.30;0.30;;;24.90;99.90;;;;;;5115514;28;20039;-73
2023/08/24 16:29:28;;;;;;;0.32;0.32;;;24.90;99.90;;;;;;5115624;28;20039;-74
2023/08/24 16:31:54;;;;;;;0.30;0.30;;;25.00;99.90;;;;;;5115445;28;20043;-73
2023/08/24 16:34:22;;;;;;;0.40;0.40;;;25.00;99.90;;;;;;5115246;28;20564;-71
2023/08/24 16:36:47;;;;;;;0.30;0.30;;;25.00;99.90;;;;;;5112318;28;20046;-70
2023/08/24 16:39:13;;;;;;;0.20;0.20;;;25.10;99.90;;;;;;5115374;28;20122;-74
2023/08/24 16:41:39;;;;;;;0.73;0.57;;;25.10;99.90;;;;;;5115476;28;20424;-73
2023/08/24 16:44:04;;;;;;;0.33;0.33;;;25.10;99.90;;;;;;5115757;28;20039;-74
2023/08/24 16:46:31;;;;;;;0.20;0.20;;;25.10;99.90;;;;;;5116196;28;20039;-74
2023/08/24 16:48:57;;;;;;;0.30;0.30;;;25.10;99.90;;;;;;5116073;28;20044;-72
2023/08/24 16:51:22;;;;;;;0.20;0.20;;;25.10;99.90;;;;;;5115404;28;20522;-73
2023/08/24 16:53:48;;;;;;;0.30;0.30;;;25.10;99.90;;;;;;5115573;28;20048;-73
2023/08/24 16:56:14;;;;;;;0.50;0.50;;;25.10;99.90;;;;;;5115372;28;20142;-73
2023/08/24 16:58:40;;;;;;;0.20;0.20;;;25.20;99.90;;;;;;5115550;28;20050;-72
2023/08/24 17:01:10;;;;;;;0.35;0.35;;;25.20;99.90;;;;;;5115523;28;20059;-73
2023/08/24 17:03:36;;;;;;;0.30;0.30;;;25.20;99.90;;;;;;5115432;28;20398;-72
2023/08/24 17:06:02;;;;;;;0.32;0.32;;;25.20;99.90;;;;;;5115185;28;20069;-72
2023/08/24 17:08:27;;;;;;;0.65;0.40;;;25.10;99.90;;;;;;5115488;28;20044;-72
2023/08/24 17:10:53;;;;;;;0.30;0.30;;;25.10;99.90;;;;;;5115086;28;20460;-71
2023/08/24 17:13:19;;;;;;;0.20;0.20;;;25.10;99.90;;;;;;5115297;28;20273;-71
2023/08/24 17:15:49;;;;;;;0.20;0.20;;;25.10;99.90;;;;;;5115301;28;20380;-73
2023/08/24 17:18:15;;;;;;;0.28;0.28;;;25.00;99.90;;;;;;5114250;28;20044;-71
2023/08/24 17:20:41;;;;;;;0.30;0.30;;;25.00;99.90;;;;;;5114904;28;20100;-72
2023/08/24 17:23:06;;;;;;;4.40;0.53;;;24.90;99.90;;;;;;5115271;28;20066;-72
2023/08/24 17:25:32;;;;;;;0.30;0.30;;;24.90;99.90;;;;;;5115150;28;20441;-72
2023/08/24 17:27:58;;;;;;;0.30;0.30;;;24.90;99.90;;;;;;5115330;28;20129;-73
2023/08/24 17:30:23;;;;;;;0.40;0.40;;;24.80;99.90;;;;;;5114791;28;20570;-74
2023/08/24 17:32:49;;;;;;;0.20;0.20;;;24.80;99.90;;;;;;5115024;28;20130;-75
2023/08/24 17:35:15;;;;;;;0.20;0.20;;;24.70;99.90;;;;;;5114427;28;20039;-74
2023/08/24 17:37:41;;;;;;;2.15;0.80;;;24.70;99.90;;;;;;5115010;28;20050;-73
2023/08/24 17:40:10;;;;;;;0.65;0.35;;;24.60;99.90;;;;;;5114366;28;20051;-79
2023/08/24 17:42:39;;;;;;;0.25;0.25;;;24.60;99.90;;;;;;5114331;28;20044;-78
2023/08/24 17:45:08;;;;;;;0.30;0.30;;;24.60;99.90;;;;;;5114568;28;20048;-76
2023/08/24 17:47:34;;;;;;;0.43;0.43;;;24.60;99.90;;;;;;5114620;28;20069;-79
2023/08/24 17:50:00;;;;;;;0.30;0.30;;;24.60;99.90;;;;;;5114334;28;20134;-76
2023/08/24 17:52:26;;;;;;;;;;;24.50;99.90;;;;;;5114815;28;20047;-84
2023/08/24 17:54:52;;;;;;;0.35;0.35;;;24.50;99.90;;;;;;5095865;28;20003;-79
2023/08/24 17:57:17;;;;;;;0.52;0.40;;;24.50;99.90;;;;;;5114578;28;20104;-77
2023/08/24 17:59:44;;;;;;;0.20;0.20;;;24.40;99.90;;;;;;5114525;28;20043;-79
2023/08/24 18:02:09;;;;;;;0.40;0.40;;;24.40;99.90;;;;;;5114546;28;20079;-79
2023/08/24 18:04:38;;;;;;;0.40;0.40;;;24.40;99.90;;;;;;5114480;28;20066;-76
2023/08/24 18:07:04;;;;;;;0.40;0.40;;;24.40;99.90;;;;;;5114155;28;20184;-80
2023/08/24 18:09:30;;;;;;;0.45;0.45;;;24.30;99.90;;;;;;5114216;28;20550;-79
2023/08/24 18:11:55;;;;;;;0.30;0.30;;;24.30;99.90;;;;;;5114345;28;20050;-80
2023/08/24 18:14:24;;;;;;;0.98;0.70;;;24.30;99.90;;;;;;5114539;28;20075;-77
2023/08/24 18:16:50;;;;;;;0.40;0.40;;;24.20;99.90;;;;;;5113333;28;20043;-78
2023/08/24 18:19:15;;;;;;;0.40;0.40;;;24.20;99.90;;;;;;5113578;28;20352;-81
2023/08/24 18:21:44;;;;;;;0.20;0.20;;;24.20;99.90;;;;;;5113176;28;20079;-77
2023/08/24 18:24:10;;;;;;;0.30;0.30;;;24.20;99.90;;;;;;5113277;28;20043;-76
2023/08/24 18:26:36;;;;;;;0.30;0.30;;;24.10;99.90;;;;;;5113546;28;20042;-74
2023/08/24 18:29:03;;;;;;;0.37;0.37;;;24.10;99.90;;;;;;5113787;28;20126;-75
2023/08/24 18:31:29;;;;;;;0.40;0.40;;;24.00;99.90;;;;;;5113835;28;20055;-77
2023/08/24 18:33:55;;;;;;;0.40;0.40;;;24.00;99.90;;;;;;5112962;28;20039;-78
2023/08/24 18:36:20;;;;;;;0.30;0.30;;;23.90;99.90;;;;;;5113260;28;20475;-76
2023/08/24 18:38:46;;;;;;;0.30;0.30;;;23.90;99.90;;;;;;5112815;28;20047;-82
2023/08/24 18:41:12;;;;;;;0.40;0.40;;;23.80;99.90;;;;;;5113096;28;20043;-77
2023/08/24 18:43:37;;;;;;;0.87;0.50;;;23.80;99.90;;;;;;5112909;28;20052;-75
2023/08/24 18:46:04;;;;;;;0.33;0.33;;;23.70;99.90;;;;;;5113317;28;20122;-76
2023/08/24 18:48:31;;;;;;;0.57;0.57;;;23.60;99.90;;;;;;5112746;28;20388;-77
2023/08/24 18:50:56;;;;;;;0.30;0.30;;;23.50;99.90;;;;;;5113371;28;20425;-77
2023/08/24 18:53:22;;;;;;;0.77;0.77;;;23.50;99.90;;;;;;5112908;28;20092;-80
2023/08/24 18:55:53;;;;;;;0.30;0.30;;;23.40;99.90;;;;;;5112397;28;20051;-81
2023/08/24 18:58:18;;;;;;;0.50;0.50;;;23.40;99.90;;;;;;5112664;28;20575;-78
2023/08/24 19:00:44;;;;;;;0.73;0.43;;;23.30;99.90;;;;;;5113864;28;20079;-77
2023/08/24 19:03:12;;;;;;;0.90;0.80;;;23.30;99.90;;;;;;5113657;28;20047;-77
2023/08/24 19:05:39;;;;;;;0.20;0.20;;;23.20;99.90;;;;;;5113293;28;20119;-78
2023/08/24 19:08:05;;;;;;;0.30;0.30;;;23.20;99.90;;;;;;5113713;28;20390;-79
2023/08/24 19:10:31;;;;;;;0.20;0.20;;;23.20;99.90;;;;;;5113766;28;20047;-78
2023/08/24 19:12:56;;;;;;;0.30;0.30;;;23.10;99.90;;;;;;5114012;28;20096;-77
2023/08/24 19:15:22;;;;;;;0.30;0.30;;;23.10;99.90;;;;;;5112708;28;20126;-78
2023/08/24 19:17:48;;;;;;;0.33;0.33;;;23.00;99.90;;;;;;5093082;28;20069;-79
2023/08/24 19:20:13;;;;;;;0.30;0.30;;;22.90;99.90;;;;;;5111402;28;20085;-77
2023/08/24 19:22:39;;;;;;;0.40;0.40;;;22.90;99.90;;;;;;5111128;28;20046;-79
2023/08/24 19:25:07;;;;;;;0.20;0.20;;;22.80;99.90;;;;;;5111251;28;20128;-81
2023/08/24 19:27:33;;;;;;;0.52;0.38;;;22.80;99.90;;;;;;5111409;28;20494;-79
2023/08/24 19:29:58;;;;;;;0.40;0.40;;;22.70;99.90;;;;;;5110839;28;20063;-80
2023/08/24 19:32:24;;;;;;;0.30;0.30;;;22.70;99.90;;;;;;5112839;28;20036;-78
2023/08/24 19:34:50;;;;;;;0.30;0.30;;;22.70;99.90;;;;;;5113223;28;20043;-80
2023/08/24 19:37:15;;;;;;;0.30;0.30;;;22.70;99.90;;;;;;5113494;28;20564;-79
2023/08/24 19:39:41;;;;;;;0.50;0.50;;;22.60;99.90;;;;;;5113474;28;20039;-79
2023/08/24 19:42:07;;;;;;;0.40;0.40;;;22.60;99.90;;;;;;5116318;28;20036;-79
2023/08/24 19:44:32;;;;;;;0.23;0.23;;;22.50;99.90;;;;;;5117367;28;20074;-78
2023/08/24 19:46:58;;;;;;;0.23;0.23;;;22.50;99.90;;;;;;5117539;28;20495;-79
2023/08/24 19:49:24;;;;;;;0.27;0.27;;;22.40;99.90;;;;;;5117403;28;20051;-81
2023/08/24 19:51:49;;;;;;;0.50;0.50;;;22.50;99.90;;;;;;5082105;28;20441;-79
2023/08/24 19:54:15;;;;;;;0.30;0.30;;;22.40;99.90;;;;;;5116696;28;20100;-78
2023/08/24 19:56:42;;;;;;;0.30;0.30;;;22.40;99.90;;;;;;5117235;28;20460;-79
2023/08/24 19:59:08;;;;;;;0.20;0.20;;;22.40;99.90;;;;;;5117124;28;20051;-79
2023/08/24 20:01:33;;;;;;;0.67;0.60;;;22.30;99.90;;;;;;5116928;28;20051;-78
2023/08/24 20:04:00;;;;;;;0.43;0.40;;;22.30;99.90;;;;;;5116837;28;20043;-77
2023/08/24 20:06:26;;;;;;;;;;;22.30;99.90;;;;;;5099307;28;20098;-80
2023/08/24 20:08:53;;;;;;;0.82;0.68;;;22.30;99.90;;;;;;5116646;28;20008;-79
2023/08/24 20:11:19;;;;;;;0.30;0.30;;;22.20;99.90;;;;;;5116985;28;20044;-80
2023/08/24 20:13:45;;;;;;;;;;;22.20;99.90;;;;;;5117495;28;20031;-81
2023/08/24 20:16:12;;;;;;;0.20;0.20;;;22.20;99.90;;;;;;5116914;28;19919;-79
2023/08/24 20:18:38;;;;;;;0.30;0.30;;;22.20;99.90;;;;;;5116728;28;20133;-79
2023/08/24 20:21:08;;;;;;;;;;;22.20;99.90;;;;;;5098610;28;20475;-78
2023/08/24 20:23:38;;;;;;;0.40;0.40;;;22.20;99.90;;;;;;5116530;28;20019;-78
2023/08/24 20:26:04;;;;;;;0.32;0.32;;;22.10;99.90;;;;;;5116479;28;20133;-74
2023/08/24 20:28:34;;;;;;;;;;;22.10;99.90;;;;;;5097652;28;20035;-80
2023/08/24 20:31:03;;;;;;;0.52;0.50;;;22.10;99.90;;;;;;5116178;28;19973;-80
2023/08/24 20:33:29;;;;;;;0.30;0.30;;;22.10;99.90;;;;;;5116621;28;20043;-82
2023/08/24 20:35:55;;;;;;;0.20;0.20;;;22.10;99.90;;;;;;5116098;28;20046;-81
2023/08/24 20:38:21;;;;;;;0.30;0.30;;;22.10;99.90;;;;;;5116263;28;20389;-80
2023/08/24 20:40:48;;;;;;;0.35;0.35;;;22.00;99.90;;;;;;5116346;28;20039;-80
2023/08/24 20:43:17;;;;;;;0.30;0.30;;;22.00;99.90;;;;;;5098204;28;20052;-81
2023/08/24 20:45:43;;;;;;;0.38;0.38;;;22.00;99.90;;;;;;5098569;28;20040;-81
2023/08/24 20:48:08;;;;;;;0.57;0.57;;;21.90;99.90;;;;;;5116407;28;20051;-80